sensor_id;sensor_type;location;lat;lon;timestamp;pressure;altitude;pressure_sealevel;temperature;humidity
43878;BME280;29815;48.184;11.268;2023-03-16T00:02:24;95933.69;;;0.67;100.00
43878;BME280;29815;48.184;11.268;2023-03-16T00:04:54;95930.81;;;0.62;100.00
43878;BME280;29815;48.184;11.268;2023-03-16T00:07:24;95925.91;;;0.59;100.00
43878;BME280;29815;48.184;11.268;2023-03-16T00:09:53;95924.28;;;0.51;100.00
43878;BME280;29815;48.184;11.268;2023-03-16T00:12:25;95924.25;;;0.45;100.00
43878;BME280;29815;48.184;11.268;2023-03-16T00:14:54;95928.50;;;0.39;100.00
43878;BME280;29815;48.184;11.268;2023-03-16T00:17:24;95927.25;;;0.35;100.00
43878;BME280;29815;48.184;11.268;2023-03-16T00:20:22;95932.31;;;0.30;100.00
43878;BME280;29815;48.184;11.268;2023-03-16T00:22:52;95934.13;;;0.23;100.00
43878;BME280;29815;48.184;11.268;2023-03-16T00:25:21;95938.56;;;0.16;100.00
43878;BME280;29815;48.184;11.268;2023-03-16T00:27:52;95936.31;;;0.13;100.00
43878;BME280;29815;48.184;11.268;2023-03-16T00:30:23;95929.97;;;0.07;100.00
43878;BME280;29815;48.184;11.268;2023-03-16T00:32:54;95932.19;;;0.04;100.00
43878;BME280;29815;48.184;11.268;2023-03-16T00:35:24;95930.53;;;0.03;100.00
43878;BME280;29815;48.184;11.268;2023-03-16T00:37:54;95928.31;;;-0.01;100.00
43878;BME280;29815;48.184;11.268;2023-03-16T00:40:25;95930.13;;;-0.01;100.00
43878;BME280;29815;48.184;11.268;2023-03-16T00:42:57;95930.53;;;-0.04;100.00
43878;BME280;29815;48.184;11.268;2023-03-16T00:45:26;95929.91;;;-0.06;100.00
43878;BME280;29815;48.184;11.268;2023-03-16T00:47:56;95937.84;;;-0.06;100.00
43878;BME280;29815;48.184;11.268;2023-03-16T00:50:27;95928.47;;;-0.09;100.00
43878;BME280;29815;48.184;11.268;2023-03-16T00:52:57;95930.28;;;-0.09;100.00
43878;BME280;29815;48.184;11.268;2023-03-16T00:55:26;95920.91;;;-0.12;100.00
43878;BME280;29815;48.184;11.268;2023-03-16T00:57:58;95915.63;;;-0.12;100.00
43878;BME280;29815;48.184;11.268;2023-03-16T01:00:32;95919.28;;;-0.13;100.00
43878;BME280;29815;48.184;11.268;2023-03-16T01:03:03;95919.06;;;-0.11;100.00
43878;BME280;29815;48.184;11.268;2023-03-16T01:05:33;95923.56;;;-0.12;100.00
43878;BME280;29815;48.184;11.268;2023-03-16T01:08:04;95923.31;;;-0.17;100.00
43878;BME280;29815;48.184;11.268;2023-03-16T01:10:34;95923.88;;;-0.21;100.00
43878;BME280;29815;48.184;11.268;2023-03-16T01:13:06;95923.66;;;-0.26;100.00
43878;BME280;29815;48.184;11.268;2023-03-16T01:15:35;95925.88;;;-0.30;100.00
43878;BME280;29815;48.184;11.268;2023-03-16T01:18:05;95921.16;;;-0.35;100.00
43878;BME280;29815;48.184;11.268;2023-03-16T01:20:35;95919.72;;;-0.37;100.00
43878;BME280;29815;48.184;11.268;2023-03-16T01:23:06;95914.81;;;-0.40;100.00
43878;BME280;29815;48.184;11.268;2023-03-16T01:25:36;95923.31;;;-0.45;100.00
43878;BME280;29815;48.184;11.268;2023-03-16T01:28:07;95923.25;;;-0.51;100.00
43878;BME280;29815;48.184;11.268;2023-03-16T01:30:37;95915.94;;;-0.56;100.00
43878;BME280;29815;48.184;11.268;2023-03-16T01:33:07;95911.84;;;-0.58;100.00
43878;BME280;29815;48.184;11.268;2023-03-16T01:35:38;95909.97;;;-0.64;100.00
43878;BME280;29815;48.184;11.268;2023-03-16T01:38:08;95915.44;;;-0.66;100.00
43878;BME280;29815;48.184;11.268;2023-03-16T01:40:39;95906.88;;;-0.68;100.00
43878;BME280;29815;48.184;11.268;2023-03-16T01:43:11;95907.44;;;-0.73;100.00
43878;BME280;29815;48.184;11.268;2023-03-16T01:46:18;95914.69;;;-0.81;100.00
43878;BME280;29815;48.184;11.268;2023-03-16T01:49:03;95907.53;;;-0.87;100.00
43878;BME280;29815;48.184;11.268;2023-03-16T01:51:42;95906.09;;;-0.90;100.00
43878;BME280;29815;48.184;11.268;2023-03-16T01:54:20;95907.66;;;-0.95;100.00
43878;BME280;29815;48.184;11.268;2023-03-16T01:56:59;95903.56;;;-0.98;100.00
43878;BME280;29815;48.184;11.268;2023-03-16T01:59:36;95896.84;;;-1.00;100.00
43878;BME280;29815;48.184;11.268;2023-03-16T02:02:09;95899.84;;;-1.04;100.00
43878;BME280;29815;48.184;11.268;2023-03-16T02:04:45;95906.34;;;-1.06;100.00
43878;BME280;29815;48.184;11.268;2023-03-16T02:07:23;95899.59;;;-1.09;100.00
43878;BME280;29815;48.184;11.268;2023-03-16T02:09:58;95908.56;;;-1.10;100.00
43878;BME280;29815;48.184;11.268;2023-03-16T02:12:30;95906.72;;;-1.09;100.00
43878;BME280;29815;48.184;11.268;2023-03-16T02:15:04;95904.06;;;-1.09;100.00
43878;BME280;29815;48.184;11.268;2023-03-16T02:17:36;95901.44;;;-1.09;100.00
43878;BME280;29815;48.184;11.268;2023-03-16T02:20:22;95899.59;;;-1.09;100.00
43878;BME280;29815;48.184;11.268;2023-03-16T02:22:59;95903.31;;;-1.03;100.00
43878;BME280;29815;48.184;11.268;2023-03-16T02:25:38;95901.75;;;-0.97;100.00
43878;BME280;29815;48.184;11.268;2023-03-16T02:28:19;95909.75;;;-0.91;100.00
43878;BME280;29815;48.184;11.268;2023-03-16T02:30:55;95905.47;;;-0.92;100.00
43878;BME280;29815;48.184;11.268;2023-03-16T02:33:27;95907.28;;;-0.92;100.00
43878;BME280;29815;48.184;11.268;2023-03-16T02:35:58;95905.28;;;-0.90;100.00
43878;BME280;29815;48.184;11.268;2023-03-16T02:38:29;95902.00;;;-0.92;100.00
43878;BME280;29815;48.184;11.268;2023-03-16T02:41:09;95904.19;;;-0.96;100.00
43878;BME280;29815;48.184;11.268;2023-03-16T02:43:45;95901.94;;;-0.99;100.00
43878;BME280;29815;48.184;11.268;2023-03-16T02:46:26;95903.31;;;-1.03;100.00
43878;BME280;29815;48.184;11.268;2023-03-16T02:49:00;95898.59;;;-1.08;100.00
43878;BME280;29815;48.184;11.268;2023-03-16T02:51:33;95895.53;;;-1.11;100.00
43878;BME280;29815;48.184;11.268;2023-03-16T02:54:03;95894.47;;;-1.17;100.00
43878;BME280;29815;48.184;11.268;2023-03-16T02:56:34;95894.22;;;-1.22;100.00
43878;BME280;29815;48.184;11.268;2023-03-16T02:59:05;95898.84;;;-1.24;100.00
43878;BME280;29815;48.184;11.268;2023-03-16T03:01:36;95894.94;;;-1.28;100.00
43878;BME280;29815;48.184;11.268;2023-03-16T03:04:07;95892.88;;;-1.32;100.00
43878;BME280;29815;48.184;11.268;2023-03-16T03:06:37;95895.28;;;-1.38;100.00
43878;BME280;29815;48.184;11.268;2023-03-16T03:09:07;95893.38;;;-1.44;100.00
43878;BME280;29815;48.184;11.268;2023-03-16T03:11:39;95895.75;;;-1.49;100.00
43878;BME280;29815;48.184;11.268;2023-03-16T03:14:09;95891.84;;;-1.53;100.00
43878;BME280;29815;48.184;11.268;2023-03-16T03:16:42;95891.41;;;-1.56;100.00
43878;BME280;29815;48.184;11.268;2023-03-16T03:19:14;95905.78;;;-1.59;100.00
43878;BME280;29815;48.184;11.268;2023-03-16T03:21:44;95892.31;;;-1.64;100.00
43878;BME280;29815;48.184;11.268;2023-03-16T03:24:14;95896.34;;;-1.68;100.00
43878;BME280;29815;48.184;11.268;2023-03-16T03:26:43;95887.19;;;-1.72;100.00
43878;BME280;29815;48.184;11.268;2023-03-16T03:29:19;95892.00;;;-1.76;100.00
43878;BME280;29815;48.184;11.268;2023-03-16T03:41:34;95885.03;;;-1.98;100.00
43878;BME280;29815;48.184;11.268;2023-03-16T03:44:06;95889.31;;;-1.97;100.00
43878;BME280;29815;48.184;11.268;2023-03-16T03:46:37;95880.41;;;-1.96;100.00
43878;BME280;29815;48.184;11.268;2023-03-16T03:49:06;95880.22;;;-1.94;100.00
43878;BME280;29815;48.184;11.268;2023-03-16T03:51:36;95878.81;;;-1.90;100.00
43878;BME280;29815;48.184;11.268;2023-03-16T03:54:09;95884.09;;;-1.90;100.00
43878;BME280;29815;48.184;11.268;2023-03-16T03:56:48;95884.50;;;-1.93;100.00
43878;BME280;29815;48.184;11.268;2023-03-16T03:59:18;95876.13;;;-1.97;100.00
43878;BME280;29815;48.184;11.268;2023-03-16T04:01:59;95873.66;;;-1.98;100.00
43878;BME280;29815;48.184;11.268;2023-03-16T04:04:40;95878.94;;;-1.98;100.00
43878;BME280;29815;48.184;11.268;2023-03-16T04:07:12;95875.50;;;-1.99;100.00
43878;BME280;29815;48.184;11.268;2023-03-16T04:09:44;95874.84;;;-2.01;100.00
43878;BME280;29815;48.184;11.268;2023-03-16T04:12:27;95874.50;;;-1.98;100.00
43878;BME280;29815;48.184;11.268;2023-03-16T04:14:57;95876.13;;;-1.97;100.00
43878;BME280;29815;48.184;11.268;2023-03-16T04:17:32;95879.41;;;-1.95;100.00
43878;BME280;29815;48.184;11.268;2023-03-16T04:20:07;95881.03;;;-1.94;100.00
43878;BME280;29815;48.184;11.268;2023-03-16T04:22:44;95887.72;;;-1.91;100.00
43878;BME280;29815;48.184;11.268;2023-03-16T04:25:16;95890.19;;;-1.90;100.00
43878;BME280;29815;48.184;11.268;2023-03-16T04:27:49;95891.00;;;-1.89;100.00
43878;BME280;29815;48.184;11.268;2023-03-16T04:30:19;95885.91;;;-1.91;100.00
43878;BME280;29815;48.184;11.268;2023-03-16T04:32:53;95888.38;;;-1.89;100.00
43878;BME280;29815;48.184;11.268;2023-03-16T04:35:24;95890.38;;;-1.91;100.00
43878;BME280;29815;48.184;11.268;2023-03-16T04:37:56;95889.59;;;-1.92;100.00
43878;BME280;29815;48.184;11.268;2023-03-16T04:40:36;95880.22;;;-1.94;100.00
43878;BME280;29815;48.184;11.268;2023-03-16T04:43:17;95882.28;;;-1.90;100.00
43878;BME280;29815;48.184;11.268;2023-03-16T04:45:49;95874.38;;;-1.90;100.00
43878;BME280;29815;48.184;11.268;2023-03-16T04:48:20;95871.72;;;-1.90;100.00
43878;BME280;29815;48.184;11.268;2023-03-16T04:50:50;95860.00;;;-1.87;100.00
43878;BME280;29815;48.184;11.268;2023-03-16T04:53:20;95861.63;;;-1.86;100.00
43878;BME280;29815;48.184;11.268;2023-03-16T04:55:56;95866.53;;;-1.83;100.00
43878;BME280;29815;48.184;11.268;2023-03-16T04:58:27;95855.81;;;-1.82;100.00
43878;BME280;29815;48.184;11.268;2023-03-16T05:00:58;95861.91;;;-1.81;100.00
43878;BME280;29815;48.184;11.268;2023-03-16T05:03:32;95852.59;;;-1.77;100.00
43878;BME280;29815;48.184;11.268;2023-03-16T05:06:03;95852.59;;;-1.77;100.00
43878;BME280;29815;48.184;11.268;2023-03-16T05:08:35;95846.34;;;-1.76;100.00
43878;BME280;29815;48.184;11.268;2023-03-16T05:11:05;95836.78;;;-1.77;100.00
43878;BME280;29815;48.184;11.268;2023-03-16T05:13:40;95841.06;;;-1.76;100.00
43878;BME280;29815;48.184;11.268;2023-03-16T05:16:10;95844.50;;;-1.76;100.00
43878;BME280;29815;48.184;11.268;2023-03-16T05:18:41;95842.50;;;-1.74;100.00
43878;BME280;29815;48.184;11.268;2023-03-16T05:21:10;95835.22;;;-1.72;100.00
43878;BME280;29815;48.184;11.268;2023-03-16T05:23:52;95837.69;;;-1.70;100.00
43878;BME280;29815;48.184;11.268;2023-03-16T05:26:22;95838.50;;;-1.69;100.00
43878;BME280;29815;48.184;11.268;2023-03-16T05:28:54;95846.84;;;-1.66;100.00
43878;BME280;29815;48.184;11.268;2023-03-16T05:31:27;95850.31;;;-1.65;100.00
43878;BME280;29815;48.184;11.268;2023-03-16T05:34:01;95851.56;;;-1.61;100.00
43878;BME280;29815;48.184;11.268;2023-03-16T05:36:30;95848.53;;;-1.58;100.00
43878;BME280;29815;48.184;11.268;2023-03-16T05:39:08;95846.34;;;-1.55;100.00
43878;BME280;29815;48.184;11.268;2023-03-16T05:41:42;95844.97;;;-1.51;100.00
43878;BME280;29815;48.184;11.268;2023-03-16T05:44:25;95841.16;;;-1.48;100.00
43878;BME280;29815;48.184;11.268;2023-03-16T05:47:15;95847.88;;;-1.46;100.00
43878;BME280;29815;48.184;11.268;2023-03-16T05:49:50;95842.41;;;-1.44;100.00
43878;BME280;29815;48.184;11.268;2023-03-16T05:52:29;95847.31;;;-1.41;100.00
43878;BME280;29815;48.184;11.268;2023-03-16T05:55:03;95839.03;;;-1.38;100.00
43878;BME280;29815;48.184;11.268;2023-03-16T05:57:33;95840.25;;;-1.34;100.00
43878;BME280;29815;48.184;11.268;2023-03-16T06:00:09;95844.97;;;-1.29;100.00
43878;BME280;29815;48.184;11.268;2023-03-16T06:02:49;95846.22;;;-1.25;100.00
43878;BME280;29815;48.184;11.268;2023-03-16T06:05:21;95846.50;;;-1.20;100.00
43878;BME280;29815;48.184;11.268;2023-03-16T06:07:52;95847.56;;;-1.15;100.00
43878;BME280;29815;48.184;11.268;2023-03-16T06:10:23;95845.16;;;-1.10;100.00
43878;BME280;29815;48.184;11.268;2023-03-16T06:12:54;95846.03;;;-1.03;100.00
43878;BME280;29815;48.184;11.268;2023-03-16T06:15:27;95851.38;;;-0.96;100.00
43878;BME280;29815;48.184;11.268;2023-03-16T06:17:59;95847.34;;;-0.92;100.00
43878;BME280;29815;48.184;11.268;2023-03-16T06:20:29;95851.69;;;-0.84;100.00
43878;BME280;29815;48.184;11.268;2023-03-16T06:22:59;95848.06;;;-0.77;100.00
43878;BME280;29815;48.184;11.268;2023-03-16T06:25:29;95852.56;;;-0.71;100.00
43878;BME280;29815;48.184;11.268;2023-03-16T06:27:59;95856.72;;;-0.61;100.00
43878;BME280;29815;48.184;11.268;2023-03-16T06:30:30;95854.13;;;-0.55;100.00
43878;BME280;29815;48.184;11.268;2023-03-16T06:33:00;95858.81;;;-0.50;100.00
43878;BME280;29815;48.184;11.268;2023-03-16T06:35:30;95856.41;;;-0.45;100.00
43878;BME280;29815;48.184;11.268;2023-03-16T06:38:16;95847.06;;;-0.41;100.00
43878;BME280;29815;48.184;11.268;2023-03-16T06:40:56;95842.84;;;-0.36;100.00
43878;BME280;29815;48.184;11.268;2023-03-16T06:43:26;95836.34;;;-0.33;100.00
43878;BME280;29815;48.184;11.268;2023-03-16T06:45:57;95840.06;;;-0.27;100.00
43878;BME280;29815;48.184;11.268;2023-03-16T06:48:29;95838.63;;;-0.23;100.00
43878;BME280;29815;48.184;11.268;2023-03-16T06:50:58;95845.59;;;-0.16;100.00
43878;BME280;29815;48.184;11.268;2023-03-16T06:53:29;95848.84;;;-0.14;100.00
43878;BME280;29815;48.184;11.268;2023-03-16T06:55:59;95847.03;;;-0.13;100.00
43878;BME280;29815;48.184;11.268;2023-03-16T06:58:32;95844.00;;;-0.10;100.00
43878;BME280;29815;48.184;11.268;2023-03-16T07:01:04;95834.84;;;-0.08;100.00
43878;BME280;29815;48.184;11.268;2023-03-16T07:03:34;95834.28;;;-0.03;100.00
43878;BME280;29815;48.184;11.268;2023-03-16T07:06:12;95838.94;;;0.02;100.00
43878;BME280;29815;48.184;11.268;2023-03-16T07:08:42;95837.16;;;0.09;100.00
43878;BME280;29815;48.184;11.268;2023-03-16T07:11:12;95831.88;;;0.15;100.00
43878;BME280;29815;48.184;11.268;2023-03-16T07:13:43;95835.38;;;0.22;100.00
43878;BME280;29815;48.184;11.268;2023-03-16T07:16:15;95828.25;;;0.29;100.00
43878;BME280;29815;48.184;11.268;2023-03-16T07:18:45;95830.13;;;0.42;100.00
43878;BME280;29815;48.184;11.268;2023-03-16T07:21:19;95828.53;;;0.48;100.00
43878;BME280;29815;48.184;11.268;2023-03-16T07:23:50;95834.03;;;0.53;100.00
43878;BME280;29815;48.184;11.268;2023-03-16T07:26:25;95833.84;;;0.61;100.00
43878;BME280;29815;48.184;11.268;2023-03-16T07:28:58;95829.38;;;0.68;100.00
43878;BME280;29815;48.184;11.268;2023-03-16T07:31:31;95840.81;;;0.75;100.00
43878;BME280;29815;48.184;11.268;2023-03-16T07:34:05;95843.88;;;0.79;100.00
43878;BME280;29815;48.184;11.268;2023-03-16T07:36:43;95845.50;;;0.86;100.00
43878;BME280;29815;48.184;11.268;2023-03-16T07:39:12;95839.38;;;0.92;100.00
43878;BME280;29815;48.184;11.268;2023-03-16T07:41:45;95842.06;;;0.99;100.00
43878;BME280;29815;48.184;11.268;2023-03-16T07:44:21;95844.91;;;1.04;100.00
43878;BME280;29815;48.184;11.268;2023-03-16T07:46:54;95846.16;;;1.08;100.00
43878;BME280;29815;48.184;11.268;2023-03-16T07:50:18;95864.88;;;1.20;100.00
43878;BME280;29815;48.184;11.268;2023-03-16T07:52:50;95853.47;;;1.26;100.00
43878;BME280;29815;48.184;11.268;2023-03-16T07:55:32;95857.97;;;1.32;100.00
43878;BME280;29815;48.184;11.268;2023-03-16T07:58:30;95862.88;;;1.35;100.00
43878;BME280;29815;48.184;11.268;2023-03-16T08:01:51;95873.84;;;1.39;100.00
43878;BME280;29815;48.184;11.268;2023-03-16T08:04:24;95873.66;;;1.40;100.00
43878;BME280;29815;48.184;11.268;2023-03-16T08:07:36;95872.25;;;1.31;100.00
43878;BME280;29815;48.184;11.268;2023-03-16T08:10:14;95870.41;;;1.25;100.00
43878;BME280;29815;48.184;11.268;2023-03-16T08:13:49;95880.41;;;1.29;100.00
43878;BME280;29815;48.184;11.268;2023-03-16T08:16:27;95876.72;;;1.30;100.00
43878;BME280;29815;48.184;11.268;2023-03-16T08:18:58;95875.31;;;1.28;100.00
43878;BME280;29815;48.184;11.268;2023-03-16T08:21:30;95879.78;;;1.27;100.00
43878;BME280;29815;48.184;11.268;2023-03-16T08:24:17;95874.91;;;1.31;100.00
43878;BME280;29815;48.184;11.268;2023-03-16T08:26:51;95882.25;;;1.35;100.00
43878;BME280;29815;48.184;11.268;2023-03-16T08:30:07;95881.41;;;1.42;100.00
43878;BME280;29815;48.184;11.268;2023-03-16T08:33:21;95877.13;;;1.47;100.00
43878;BME280;29815;48.184;11.268;2023-03-16T08:35:54;95871.63;;;1.55;100.00
43878;BME280;29815;48.184;11.268;2023-03-16T08:38:30;95876.50;;;1.58;100.00
43878;BME280;29815;48.184;11.268;2023-03-16T08:41:09;95875.91;;;1.63;100.00
43878;BME280;29815;48.184;11.268;2023-03-16T08:43:42;95871.19;;;1.72;100.00
43878;BME280;29815;48.184;11.268;2023-03-16T08:46:14;95868.09;;;1.81;100.00
43878;BME280;29815;48.184;11.268;2023-03-16T08:48:51;95875.03;;;1.89;100.00
43878;BME280;29815;48.184;11.268;2023-03-16T08:51:28;95876.41;;;1.98;100.00
43878;BME280;29815;48.184;11.268;2023-03-16T08:54:03;95877.63;;;2.09;100.00
43878;BME280;29815;48.184;11.268;2023-03-16T08:56:34;95870.00;;;2.25;100.00
43878;BME280;29815;48.184;11.268;2023-03-16T08:59:07;95868.34;;;2.37;100.00
43878;BME280;29815;48.184;11.268;2023-03-16T09:01:58;95866.00;;;2.54;100.00
43878;BME280;29815;48.184;11.268;2023-03-16T09:04:29;95869.03;;;2.64;100.00
43878;BME280;29815;48.184;11.268;2023-03-16T09:07:01;95859.53;;;2.75;100.00
43878;BME280;29815;48.184;11.268;2023-03-16T09:10:08;95865.78;;;2.94;100.00
43878;BME280;29815;48.184;11.268;2023-03-16T09:13:30;95854.44;;;3.05;100.00
43878;BME280;29815;48.184;11.268;2023-03-16T09:16:01;95848.66;;;3.15;100.00
43878;BME280;29815;48.184;11.268;2023-03-16T09:18:35;95853.91;;;3.28;100.00
43878;BME280;29815;48.184;11.268;2023-03-16T09:21:11;95852.53;;;3.44;100.00
43878;BME280;29815;48.184;11.268;2023-03-16T09:23:45;95849.72;;;3.57;100.00
43878;BME280;29815;48.184;11.268;2023-03-16T09:26:34;95855.28;;;3.80;100.00
43878;BME280;29815;48.184;11.268;2023-03-16T09:29:13;95849.03;;;3.86;100.00
